Information Last Ob Photographs Calibration Meteogram Network Table Neighbors Monthly Summaries Observation History Wind Roses Custom Wind Roses Data Calendar Satellite Cloud Product Download

25 May 2022 Observation History, [AMW] Ames, timezone: America/Chicago

Select Date: Time Order:

Show METARs   Show High Frequency MADIS

Previous Day
Time Wind
(mph)
Vis.
(mi.)
Sky Cond.
(100s ft)
Present Wx Temperature (ºF) Relative
Humidity
Pressure Snow
Depth
(in)
Precipitation (in.)
Air Dwpt Feels Like 6 hour altimeter
(in.)
sea level
(mb)
1 hr 3 hr 6 hr
Max.Min.
12:00 AMNE 13G 216 OVC038
-RA BR % 29.99
KAMW 250500Z AUTO 05011G18KT 6SM -RA BR OVC038 11/09 A2999 RMK T01100090 MADISHF
12:05 AMNE 166 OVC038
-RA BR % 29.99
KAMW 250505Z AUTO 05014KT 6SM -RA BR OVC038 11/09 A2999 RMK T01100090 MADISHF
12:10 AMENE 16G 245 OVC036
-RA BR % 29.98
KAMW 250510Z AUTO 06014G21KT 5SM -RA BR OVC036 11/09 A2998 RMK T01100090 MADISHF
12:15 AMENE 134 FEW014
OVC036
RA BR % 29.98
KAMW 250515Z AUTO 06011KT 4SM RA BR FEW014 OVC036 11/09 A2998 RMK T01100090 MADISHF
12:20 AMENE 13G 224 FEW014
OVC036
RA BR % 29.97
KAMW 250520Z AUTO 06011G19KT 4SM RA BR FEW014 OVC036 11/09 A2997 RMK T01100090 MADISHF
12:25 AMENE 155 FEW015
OVC034
-RA BR % 29.97
KAMW 250525Z AUTO 06013KT 5SM -RA BR FEW015 OVC034 11/09 A2997 RMK T01100090 MADISHF
12:30 AMNE 155 SCT013
OVC034
-RA BR % 29.97
KAMW 250530Z AUTO 05013KT 5SM -RA BR SCT013 OVC034 11/09 A2997 RMK T01100090 MADISHF
12:35 AMNE 13G 216 BKN013
OVC032
-RA BR % 29.96
KAMW 250535Z AUTO 05011G18KT 6SM -RA BR BKN013 OVC032 11/09 A2996 RMK T01100090 MADISHF
12:39 AMNE 14G 245 BKN013
OVC032
-RA BR514951 92% 29.960
KAMW 250539Z AUTO 05012G21KT 5SM -RA BR BKN013 OVC032 11/09 A2996 RMK AO2 T01060094 PNO $
12:40 AMENE 13G 205 BKN013
OVC032
-RA BR % 29.96
KAMW 250540Z AUTO 06011G17KT 5SM -RA BR BKN013 OVC032 11/09 A2996 RMK T01100090 MADISHF
12:45 AMENE 16G 255 BKN013
BKN018
OVC032
-RA BR % 29.96
KAMW 250545Z AUTO 06014G22KT 5SM -RA BR BKN013 BKN018 OVC032 11/09 A2996 RMK T01100090 MADISHF
12:50 AMENE 15G 214 BKN013
BKN026
OVC030
-RA BR % 29.95
KAMW 250550Z AUTO 06013G18KT 4SM -RA BR BKN013 BKN026 OVC030 11/09 A2995 RMK T01100090 MADISHF
12:53 AMENE 15G 254 FEW007
BKN013
OVC023
-RA BR514951 53 50 92% 29.9510140
KAMW 250553Z AUTO 06013G22KT 4SM -RA BR FEW007 BKN013 OVC023 11/09 A2995 RMK AO2 SLP140 6//// T01060094 10117 20100 401500083 58022 PNO $
12:55 AMENE 13G 204 FEW007
BKN013
OVC026
-RA BR % 29.95
KAMW 250555Z AUTO 06011G17KT 4SM -RA BR FEW007 BKN013 OVC026 11/09 A2995 RMK T01100090 MADISHF
1:00 AMNE 17G 254 BKN010
BKN015
OVC024
-RA BR % 29.94
KAMW 250600Z AUTO 05015G22KT 4SM -RA BR BKN010 BKN015 OVC024 11/09 A2994 RMK T01100090 MADISHF
1:05 AMENE 153.5 SCT010
BKN015
OVC022
-RA BR % 29.94
KAMW 250605Z AUTO 07013KT 3SM -RA BR SCT010 BKN015 OVC022 11/09 A2994 RMK T01100090 MADISHF
1:10 AMENE 124 BKN009
BKN014
OVC022
-RA BR % 29.94
KAMW 250610Z AUTO 06010KT 4SM -RA BR BKN009 BKN014 OVC022 11/09 A2994 RMK T01100090 MADISHF
1:15 AMENE 12G 255 BKN009
BKN014
OVC022
-RA BR514951 92% 29.940
KAMW 250615Z AUTO 06010G22KT 5SM -RA BR BKN009 BKN014 OVC022 11/09 A2994 RMK AO2 T01060094 PNO $
1:15 AMENE 12G 185 BKN009
BKN014
OVC022
-RA BR % 29.94
KAMW 250615Z AUTO 06010G16KT 5SM -RA BR BKN009 BKN014 OVC022 11/09 A2994 RMK T01100090 MADISHF
1:20 AMNE 16G 246 BKN009
BKN014
OVC021
-RA BR % 29.93
KAMW 250620Z AUTO 05014G21KT 6SM -RA BR BKN009 BKN014 OVC021 11/09 A2993 RMK T01100090 MADISHF
1:25 AMENE 136 SCT009
BKN014
OVC021
-RA BR % 29.93
KAMW 250625Z AUTO 07011KT 6SM -RA BR SCT009 BKN014 OVC021 11/09 A2993 RMK T01100090 MADISHF
1:30 AMENE 13G 215 BKN009
BKN014
OVC026
-RA BR % 29.93
KAMW 250630Z AUTO 07011G18KT 5SM -RA BR BKN009 BKN014 OVC026 11/09 A2993 RMK T01100090 MADISHF
1:35 AMENE 15G 254 BKN009
BKN013
OVC027
-RA BR % 29.92
KAMW 250635Z AUTO 07013G22KT 4SM -RA BR BKN009 BKN013 OVC027 11/09 A2992 RMK T01100090 MADISHF
1:40 AMENE 16G 224 BKN009
BKN014
OVC027
-RA BR % 29.92
KAMW 250640Z AUTO 06014G19KT 4SM -RA BR BKN009 BKN014 OVC027 11/09 A2992 RMK T01100090 CIG 5V11 MADISHF
1:45 AMENE 155 BKN009
BKN016
OVC029
-RA BR % 29.92
KAMW 250645Z AUTO 06013KT 5SM -RA BR BKN009 BKN016 OVC029 11/09 A2992 RMK T01100090 CIG 6V13 MADISHF
1:50 AMENE 165 BKN009
OVC016
-RA BR % 29.92
KAMW 250650Z AUTO 07014KT 5SM -RA BR BKN009 OVC016 10/09 A2992 RMK T01000090 CIG 6V12 MADISHF
1:53 AMENE 10G 224 BKN009
OVC017
-RA BR514951 92% 29.911012.80
KAMW 250653Z AUTO 07009G19KT 4SM -RA BR BKN009 OVC017 11/09 A2991 RMK AO2 CIG 006V015 SLP128 T01060094 PNO $
2:00 AMENE 13G 244 BKN007
OVC012
-RA BR % 29.91
KAMW 250700Z AUTO 07011G21KT 4SM -RA BR BKN007 OVC012 10/09 A2991 RMK T01000090 MADISHF
2:05 AMENE 123.5 BKN007
OVC012
-RA BR % 29.91
KAMW 250705Z AUTO 07010KT 3SM -RA BR BKN007 OVC012 10/09 A2991 RMK T01000090 MADISHF
2:10 AMENE 154 BKN007
OVC012
-RA BR % 29.9
KAMW 250710Z AUTO 07013KT 4SM -RA BR BKN007 OVC012 10/09 A2990 RMK T01000090 CIG 5V9 MADISHF
2:15 AMENE 125 BKN007
OVC012
-RA BR % 29.9
KAMW 250715Z AUTO 07010KT 5SM -RA BR BKN007 OVC012 10/09 A2990 RMK T01000090 CIG 5V10 MADISHF
2:20 AMENE 15G 226 BKN007
OVC012
BR % 29.9
KAMW 250720Z AUTO 06013G19KT 6SM BR BKN007 OVC012 10/09 A2990 RMK T01000090 CIG 5V9 MADISHF
2:25 AMENE 135 OVC009
BR % 29.9
KAMW 250725Z AUTO 07011KT 5SM BR OVC009 10/09 A2990 RMK T01000090 CIG 5V14 MADISHF
2:30 AMENE 13G 204 OVC009
BR % 29.89
KAMW 250730Z AUTO 07011G17KT 4SM BR OVC009 10/09 A2989 RMK T01000090 CIG 5V11 MADISHF
2:35 AME 16G 225 OVC009
BR % 29.89
KAMW 250735Z AUTO 08014G19KT 5SM BR OVC009 10/09 A2989 RMK T01000090 CIG 5V13 MADISHF
2:40 AME 15G 225 OVC009
BR % 29.89
KAMW 250740Z AUTO 08013G19KT 5SM BR OVC009 10/09 A2989 RMK T01000090 CIG 5V12 MADISHF
2:45 AMENE 13G 225 OVC008
BR % 29.89
KAMW 250745Z AUTO 07011G19KT 5SM BR OVC008 10/09 A2989 RMK T01000090 CIG 6V13 MADISHF
2:50 AMENE 135 OVC008
BR % 29.89
KAMW 250750Z AUTO 07011KT 5SM BR OVC008 10/09 A2989 RMK T01000090 CIG 6V12 MADISHF
2:53 AMENE 13G 235 OVC008
BR504850 93% 29.891011.90
KAMW 250753Z AUTO 07011G20KT 5SM BR OVC008 10/09 A2989 RMK AO2 RAE19 CIG 006V012 SLP119 T01000089 PNO $

The IEM API webservice that provided data to this page. For more details, see documentation.

Data Notes

  • For recent years, this page also optionally shows observations from the MADIS High Frequency METAR dataset. This dataset had a problem with temperatures detailed here.